createdAt,value
2023-02-19T00:01:14.443Z,99686.03
2023-02-19T00:02:47.748Z,99696.66
2023-02-19T00:04:22.001Z,99696.25
2023-02-19T00:05:53.976Z,99691.69
2023-02-19T00:07:26.071Z,99699.75
2023-02-19T00:08:58.137Z,99686.50
2023-02-19T00:10:30.107Z,99683.94
2023-02-19T00:12:02.055Z,99692.41
2023-02-19T00:13:41.235Z,99685.88
2023-02-19T00:15:13.162Z,99692.16
2023-02-19T00:16:45.393Z,99685.06
2023-02-19T00:18:17.320Z,99700.38
2023-02-19T00:19:49.399Z,99695.25
2023-02-19T00:21:21.414Z,99683.81
2023-02-19T00:22:53.390Z,99684.88
2023-02-19T00:24:25.326Z,99676.13
2023-02-19T00:26:03.188Z,99672.84
2023-02-19T00:27:41.652Z,99694.75
2023-02-19T00:29:15.140Z,99692.34
2023-02-19T00:30:47.193Z,99691.63
2023-02-19T00:32:19.463Z,99687.63
2023-02-19T00:33:53.237Z,99687.63
2023-02-19T00:35:25.300Z,99689.78
2023-02-19T00:36:57.218Z,99695.38
2023-02-19T00:38:29.236Z,99681.94
2023-02-19T00:40:02.020Z,99682.09
2023-02-19T00:41:35.470Z,99683.53
2023-02-19T00:43:07.615Z,99685.69
2023-02-19T00:44:39.541Z,99687.13
2023-02-19T00:46:11.557Z,99689.28
2023-02-19T00:47:43.642Z,99681.13
2023-02-19T00:49:17.940Z,99677.53
2023-02-19T00:50:49.970Z,99680.81
2023-02-19T00:52:22.212Z,99679.53
2023-02-19T00:53:54.524Z,99678.09
2023-02-19T00:55:26.512Z,99686.25
2023-02-19T00:56:58.436Z,99688.25
2023-02-19T00:58:30.440Z,99687.53
2023-02-19T01:00:02.549Z,99675.94
2023-02-19T01:01:35.860Z,99683.38
2023-02-19T01:03:07.988Z,99684.66
2023-02-19T01:04:39.949Z,99679.22
2023-02-19T01:06:14.075Z,99690.97
2023-02-19T01:07:46.119Z,99692.41
2023-02-19T01:09:18.151Z,99682.25
2023-02-19T01:10:50.215Z,99690.25
2023-02-19T01:12:24.312Z,99684.53
2023-02-19T01:14:00.174Z,99678.25
2023-02-19T01:15:35.494Z,99680.25
2023-02-19T01:17:07.988Z,99686.97
2023-02-19T01:18:40.858Z,99680.81
2023-02-19T01:20:12.905Z,99685.53
2023-02-19T01:21:44.950Z,99678.50
2023-02-19T01:23:16.876Z,99676.50
2023-02-19T01:24:48.928Z,99675.38
2023-02-19T01:26:22.626Z,99683.69
2023-02-19T01:27:54.637Z,99684.97
2023-02-19T01:29:26.715Z,99684.41
2023-02-19T01:31:03.058Z,99678.97
2023-02-19T01:32:35.072Z,99676.25
2023-02-19T01:34:07.204Z,99685.25
2023-02-19T01:35:39.619Z,99679.09
2023-02-19T01:37:12.241Z,99673.53
2023-02-19T01:38:45.508Z,99674.09
2023-02-19T01:40:17.965Z,99676.09
2023-02-19T01:41:49.922Z,99669.53
2023-02-19T01:43:21.899Z,99676.25
2023-02-19T01:45:12.344Z,99678.09
2023-02-19T01:46:46.361Z,99678.09
2023-02-19T01:48:27.531Z,99668.34
2023-02-19T01:49:59.576Z,99662.75
2023-02-19T01:51:32.757Z,99664.06
2023-02-19T01:53:07.041Z,99661.72
2023-02-19T01:54:40.298Z,99663.03
2023-02-19T01:56:13.448Z,99662.28
2023-02-19T01:57:46.986Z,99650.56
2023-02-19T01:59:21.784Z,99647.53
2023-02-19T02:00:53.765Z,99639.06
2023-02-19T02:02:27.433Z,99642.59
2023-02-19T02:03:59.955Z,99644.13
2023-02-19T02:05:42.425Z,99638.94
2023-02-19T02:07:33.075Z,99638.47
2023-02-19T02:09:23.827Z,99634.09
2023-02-19T02:10:56.136Z,99639.16
2023-02-19T02:12:28.286Z,99632.19
2023-02-19T02:14:00.474Z,99631.22
2023-02-19T02:15:42.139Z,99635.84
2023-02-19T02:17:20.217Z,99640.88
2023-02-19T02:19:05.339Z,99645.47
2023-02-19T02:20:37.358Z,99641.22
2023-02-19T02:22:09.364Z,99643.97
2023-02-19T02:23:59.963Z,99638.63
2023-02-19T02:25:55.031Z,99633.03
2023-02-19T02:27:38.283Z,99634.88
2023-02-19T02:29:30.647Z,99627.09
2023-02-19T02:31:26.492Z,99630.06
2023-02-19T02:33:09.697Z,99624.66
2023-02-19T02:34:53.044Z,99627.03
2023-02-19T02:36:30.931Z,99624.41
2023-02-19T02:38:05.069Z,99627.88
2023-02-19T02:39:38.767Z,99631.88
2023-02-19T02:41:12.165Z,99622.16
2023-02-19T02:42:44.588Z,99628.72
2023-02-19T02:44:17.965Z,99624.44
2023-02-19T02:45:51.313Z,99612.19
2023-02-19T02:47:50.617Z,99605.19
2023-02-19T02:49:23.666Z,99605.94
2023-02-19T02:50:56.934Z,99605.44
2023-02-19T02:52:47.498Z,99605.06
2023-02-19T02:54:42.725Z,99605.59
2023-02-19T02:56:18.589Z,99594.41
2023-02-19T02:57:50.867Z,99582.50
2023-02-19T02:59:25.229Z,99586.97
2023-02-19T03:01:21.767Z,99584.81
2023-02-19T03:02:54.037Z,99588.59
2023-02-19T03:05:00.780Z,99588.22
2023-02-19T03:06:34.366Z,99575.19
2023-02-19T03:08:18.382Z,99583.06
2023-02-19T03:09:50.645Z,99576.09
2023-02-19T03:11:41.152Z,99567.78
2023-02-19T03:13:43.438Z,99572.81
2023-02-19T03:15:35.520Z,99563.50
2023-02-19T03:17:46.489Z,99568.94
2023-02-19T03:19:19.913Z,99566.09
2023-02-19T03:20:55.540Z,99574.41
2023-02-19T03:22:31.650Z,99567.19
2023-02-19T03:24:24.266Z,99576.06
2023-02-19T03:26:05.206Z,99572.97
2023-02-19T03:27:47.784Z,99569.41
2023-02-19T03:29:26.111Z,99579.53
2023-02-19T03:31:05.042Z,99589.44
2023-02-19T03:32:42.615Z,99572.47
2023-02-19T03:34:16.977Z,99578.06
2023-02-19T03:36:00.823Z,99571.94
2023-02-19T03:37:37.605Z,99589.63
2023-02-19T03:39:11.327Z,99581.66
2023-02-19T03:41:04.019Z,99580.03
2023-02-19T03:42:55.082Z,99585.59
2023-02-19T03:44:46.799Z,99584.50
2023-02-19T03:46:25.977Z,99589.66
2023-02-19T03:47:58.244Z,99582.38
2023-02-19T03:49:35.264Z,99587.25
2023-02-19T03:51:26.022Z,99589.38
2023-02-19T03:53:07.354Z,99583.53
2023-02-19T03:54:47.276Z,99569.03
2023-02-19T03:56:28.819Z,99567.22
2023-02-19T03:58:00.738Z,99572.09
2023-02-19T03:59:32.760Z,99571.19
2023-02-19T04:01:07.217Z,99571.03
2023-02-19T04:02:59.403Z,99564.56
2023-02-19T04:04:36.351Z,99563.50
2023-02-19T04:06:18.226Z,99566.06
2023-02-19T04:07:52.402Z,99562.63
2023-02-19T04:09:31.065Z,99557.38
2023-02-19T04:11:09.155Z,99564.78
2023-02-19T04:12:44.943Z,99561.50
2023-02-19T04:14:20.141Z,99563.66
2023-02-19T04:15:54.546Z,99555.91
2023-02-19T04:17:42.737Z,99565.06
2023-02-19T04:19:17.470Z,99564.69
2023-02-19T04:20:50.510Z,99560.16
2023-02-19T04:22:22.759Z,99561.91
2023-02-19T04:23:55.347Z,99567.69
2023-02-19T04:25:27.873Z,99570.00
2023-02-19T04:26:59.938Z,99566.91
2023-02-19T04:28:31.955Z,99570.09
2023-02-19T04:30:04.724Z,99563.97
2023-02-19T04:31:37.814Z,99566.13
2023-02-19T04:33:09.767Z,99570.28
2023-02-19T04:34:41.854Z,99558.16
2023-02-19T04:36:13.864Z,99557.06
2023-02-19T04:37:45.900Z,99568.06
2023-02-19T04:39:17.796Z,99560.09
2023-02-19T04:40:51.504Z,99558.97
2023-02-19T04:42:23.419Z,99559.84
2023-02-19T04:43:55.537Z,99558.22
2023-02-19T04:45:27.677Z,99565.22
2023-02-19T04:46:59.637Z,99556.00
2023-02-19T04:48:31.666Z,99561.72
2023-02-19T04:50:04.016Z,99557.75
2023-02-19T04:51:35.968Z,99562.06
2023-02-19T04:53:07.964Z,99564.38
2023-02-19T04:54:40.036Z,99565.97
2023-02-19T04:56:13.340Z,99552.03
2023-02-19T04:57:45.288Z,99556.91
2023-02-19T04:59:17.355Z,99555.78
2023-02-19T05:00:53.194Z,99551.97
2023-02-19T05:02:25.346Z,99556.09
2023-02-19T05:03:57.387Z,99561.84
2023-02-19T05:05:30.435Z,99560.00
2023-02-19T05:07:02.335Z,99553.31
2023-02-19T05:08:34.641Z,99551.31
2023-02-19T05:10:06.666Z,99556.03
2023-02-19T05:11:38.717Z,99550.03
2023-02-19T05:13:10.744Z,99564.47
2023-02-19T05:14:42.730Z,99552.91
2023-02-19T05:16:16.278Z,99550.91
2023-02-19T05:17:48.397Z,99548.91
2023-02-19T05:19:20.377Z,99544.34
2023-02-19T05:20:52.722Z,99541.09
2023-02-19T05:22:24.744Z,99539.81
2023-02-19T05:23:56.759Z,99536.53
2023-02-19T05:25:28.754Z,99534.00
2023-02-19T05:27:00.776Z,99545.00
2023-02-19T05:28:32.755Z,99541.03
2023-02-19T05:30:04.822Z,99535.75
2023-02-19T05:31:36.866Z,99539.19
2023-02-19T05:33:09.113Z,99526.88
2023-02-19T05:34:41.022Z,99531.59
2023-02-19T05:36:13.986Z,99526.19
2023-02-19T05:37:45.958Z,99537.03
2023-02-19T05:39:17.894Z,99533.75
2023-02-19T05:40:49.977Z,99535.03
2023-02-19T05:42:22.076Z,99539.88
2023-02-19T05:43:54.609Z,99537.88
2023-02-19T05:45:26.748Z,99533.16
2023-02-19T05:46:58.655Z,99537.34
2023-02-19T05:48:30.735Z,99535.88
2023-02-19T05:50:02.797Z,99537.88
2023-02-19T05:51:34.832Z,99539.19
2023-02-19T05:53:06.774Z,99539.19
2023-02-19T05:54:38.739Z,99539.03
2023-02-19T05:56:29.605Z,99538.13
2023-02-19T05:58:01.629Z,99552.09
2023-02-19T05:59:33.585Z,99553.97
2023-02-19T06:01:05.595Z,99553.22
2023-02-19T06:02:37.792Z,99545.34
2023-02-19T06:04:14.053Z,99551.84
2023-02-19T06:05:46.012Z,99544.84
2023-02-19T06:07:17.965Z,99558.94
2023-02-19T06:08:50.465Z,99555.38
2023-02-19T06:10:22.506Z,99552.50
2023-02-19T06:11:54.645Z,99549.63
2023-02-19T06:13:26.629Z,99540.06
2023-02-19T06:14:58.605Z,99541.88
2023-02-19T06:16:32.234Z,99537.56
2023-02-19T06:18:04.302Z,99546.25
2023-02-19T06:19:36.375Z,99535.97
2023-02-19T06:21:09.925Z,99529.53
2023-02-19T06:22:42.030Z,99536.19
2023-02-19T06:24:13.977Z,99541.47
2023-02-19T06:25:46.077Z,99533.03
2023-02-19T06:27:17.996Z,99536.25
2023-02-19T06:28:50.934Z,99533.41
2023-02-19T06:30:22.922Z,99535.41
2023-02-19T06:31:55.171Z,99540.09
2023-02-19T06:33:27.996Z,99538.69
2023-02-19T06:34:59.978Z,99531.81
2023-02-19T06:36:32.058Z,99541.22
2023-02-19T06:38:04.020Z,99540.50
2023-02-19T06:39:36.220Z,99546.50
2023-02-19T06:41:09.070Z,99542.31
2023-02-19T06:42:41.479Z,99529.31
2023-02-19T06:44:13.426Z,99526.44
2023-02-19T06:45:45.524Z,99528.28
2023-02-19T06:47:17.584Z,99530.28
2023-02-19T06:48:49.518Z,99534.09
2023-02-19T06:50:21.462Z,99540.06
2023-02-19T06:51:53.404Z,99539.50
2023-02-19T06:53:25.422Z,99527.38
2023-02-19T06:54:57.400Z,99534.09
2023-02-19T06:56:30.914Z,99533.94
2023-02-19T06:58:02.859Z,99542.09
2023-02-19T06:59:34.856Z,99533.94
2023-02-19T07:01:06.966Z,99536.66
2023-02-19T07:02:38.977Z,99544.78
2023-02-19T07:04:11.105Z,99547.50
2023-02-19T07:05:43.976Z,99543.50
2023-02-19T07:07:16.020Z,99552.75
2023-02-19T07:08:48.139Z,99543.91
2023-02-19T07:10:20.123Z,99545.88
2023-02-19T07:11:52.476Z,99550.03
2023-02-19T07:13:25.737Z,99543.19
2023-02-19T07:14:57.728Z,99546.03
2023-02-19T07:16:30.144Z,99546.75
2023-02-19T07:18:02.504Z,99550.22
2023-02-19T07:19:34.503Z,99542.78
2023-02-19T07:21:08.090Z,99544.94
2023-02-19T07:22:40.252Z,99543.66
2023-02-19T07:24:12.180Z,99549.25
2023-02-19T07:25:54.364Z,99550.69
2023-02-19T07:27:44.599Z,99548.13
2023-02-19T07:29:16.628Z,99544.31
2023-02-19T07:30:48.725Z,99546.66
2023-02-19T07:32:20.782Z,99543.69
2023-02-19T07:33:52.844Z,99544.34
2023-02-19T07:35:24.815Z,99539.41
2023-02-19T07:36:56.784Z,99548.03
2023-02-19T07:38:29.011Z,99545.63
2023-02-19T07:40:01.035Z,99552.25
2023-02-19T07:41:33.239Z,99559.63
2023-02-19T07:43:05.430Z,99553.22
2023-02-19T07:44:37.345Z,99548.09
2023-02-19T07:46:10.843Z,99542.47
2023-02-19T07:47:43.320Z,99545.63
2023-02-19T07:49:15.257Z,99547.53
2023-02-19T07:50:53.619Z,99548.34
2023-02-19T07:52:25.917Z,99535.69
2023-02-19T07:53:57.929Z,99546.19
2023-02-19T07:55:31.726Z,99547.56
2023-02-19T07:57:03.895Z,99546.63
2023-02-19T07:58:35.958Z,99541.53
2023-02-19T08:00:08.213Z,99539.31
2023-02-19T08:02:02.926Z,99535.78
2023-02-19T08:03:35.671Z,99545.94
2023-02-19T08:05:07.803Z,99539.25
2023-02-19T08:06:39.856Z,99530.34
2023-02-19T08:08:13.243Z,99529.06
2023-02-19T08:09:45.168Z,99542.09
2023-02-19T08:11:35.476Z,99537.94
2023-02-19T08:13:19.466Z,99539.50
2023-02-19T08:14:51.387Z,99545.91
2023-02-19T08:16:40.772Z,99553.31
2023-02-19T08:18:15.320Z,99549.63
2023-02-19T08:19:47.359Z,99554.16
2023-02-19T08:21:20.671Z,99568.06
2023-02-19T08:22:52.656Z,99563.91
2023-02-19T08:24:24.714Z,99562.34
2023-02-19T08:26:00.410Z,99561.34
2023-02-19T08:27:32.393Z,99563.25
2023-02-19T08:29:05.041Z,99584.03
2023-02-19T08:30:38.488Z,99574.16
2023-02-19T08:32:10.702Z,99579.47
2023-02-19T08:33:42.774Z,99579.47
2023-02-19T08:35:14.807Z,99577.34
2023-02-19T08:36:46.867Z,99578.75
2023-02-19T08:38:18.834Z,99579.31
2023-02-19T08:39:50.801Z,99576.56
2023-02-19T08:41:23.050Z,99578.69
2023-02-19T08:42:55.118Z,99576.22
2023-02-19T08:44:27.089Z,99577.72
2023-02-19T08:45:59.464Z,99574.53
2023-02-19T08:47:31.637Z,99570.41
2023-02-19T08:49:03.795Z,99567.69
2023-02-19T08:50:36.260Z,99580.66
2023-02-19T08:52:08.209Z,99579.75
2023-02-19T08:53:40.651Z,99578.44
2023-02-19T08:55:12.686Z,99570.25
2023-02-19T08:56:44.885Z,99584.50
2023-02-19T08:58:17.025Z,99597.44
2023-02-19T08:59:49.096Z,99586.81
2023-02-19T09:01:21.188Z,99593.75
2023-02-19T09:02:53.115Z,99585.31
2023-02-19T09:04:25.198Z,99590.19
2023-02-19T09:05:57.255Z,99582.13
2023-02-19T09:07:29.387Z,99587.84
2023-02-19T09:09:01.304Z,99589.56
2023-02-19T09:10:33.423Z,99595.69
2023-02-19T09:12:06.428Z,99580.34
2023-02-19T09:13:38.518Z,99589.69
2023-02-19T09:15:10.736Z,99572.28
2023-02-19T09:16:42.830Z,99582.78
2023-02-19T09:18:14.855Z,99586.50
2023-02-19T09:19:46.881Z,99581.53
2023-02-19T09:21:18.799Z,99572.28
2023-02-19T09:22:51.044Z,99565.97
2023-02-19T09:24:23.676Z,99566.94
2023-02-19T09:26:03.353Z,99577.50
2023-02-19T09:27:35.409Z,99565.41
2023-02-19T09:29:07.574Z,99568.16
2023-02-19T09:30:39.725Z,99571.34
2023-02-19T09:32:12.110Z,99573.84
2023-02-19T09:33:44.892Z,99570.06
2023-02-19T09:35:17.192Z,99573.84
2023-02-19T09:36:49.720Z,99555.63
2023-02-19T09:38:21.713Z,99568.47
2023-02-19T09:39:54.034Z,99564.94
2023-02-19T09:41:26.413Z,99561.81
2023-02-19T09:43:00.913Z,99559.09
2023-02-19T09:44:39.138Z,99553.25
2023-02-19T09:46:16.940Z,99527.22
2023-02-19T09:47:49.780Z,99526.50
2023-02-19T09:49:28.290Z,99537.75
2023-02-19T09:51:01.775Z,99534.72
2023-02-19T09:52:40.976Z,99539.31
2023-02-19T09:54:17.788Z,99527.16
2023-02-19T09:55:50.024Z,99540.09
2023-02-19T09:57:22.670Z,99527.28
2023-02-19T09:58:56.859Z,99523.84
2023-02-19T10:00:33.081Z,99531.91
2023-02-19T10:02:11.632Z,99507.91
2023-02-19T10:03:44.752Z,99526.75
2023-02-19T10:05:17.026Z,99510.47
2023-02-19T10:06:49.824Z,99528.59
2023-02-19T10:08:22.250Z,99514.13
2023-02-19T10:09:58.788Z,99517.91
2023-02-19T10:11:30.791Z,99509.72
2023-02-19T10:13:15.060Z,99497.25
2023-02-19T10:14:48.693Z,99502.09
2023-02-19T10:16:24.397Z,99479.22
2023-02-19T10:17:56.408Z,99477.84
2023-02-19T10:19:28.446Z,99494.25
2023-02-19T10:21:00.473Z,99508.56
2023-02-19T10:22:33.787Z,99512.88
2023-02-19T10:24:06.879Z,99498.19
2023-02-19T10:25:41.431Z,99498.81
2023-02-19T10:27:14.016Z,99502.94
2023-02-19T10:28:46.103Z,99504.41
2023-02-19T10:30:23.135Z,99499.09
2023-02-19T10:32:14.280Z,99491.34
2023-02-19T10:33:50.984Z,99497.16
2023-02-19T10:35:23.061Z,99497.03
2023-02-19T10:36:55.280Z,99497.16
2023-02-19T10:38:29.582Z,99495.59
2023-02-19T10:40:01.608Z,99495.13
2023-02-19T10:41:34.841Z,99496.78
2023-02-19T10:43:06.790Z,99488.56
2023-02-19T10:44:42.784Z,99492.50
2023-02-19T10:46:20.593Z,99491.56
2023-02-19T10:47:53.065Z,99487.00
2023-02-19T10:49:40.776Z,99480.78
2023-02-19T10:51:20.936Z,99479.78
2023-02-19T10:52:56.607Z,99483.44
2023-02-19T10:54:30.339Z,99454.22
2023-02-19T10:56:30.056Z,99472.31
2023-02-19T10:58:20.614Z,99464.97
2023-02-19T10:59:54.194Z,99474.28
2023-02-19T11:01:27.188Z,99475.44
2023-02-19T11:03:19.071Z,99473.34
2023-02-19T11:05:03.098Z,99496.16
2023-02-19T11:06:35.193Z,99474.16
2023-02-19T11:08:21.102Z,99467.84
2023-02-19T11:09:53.830Z,99471.75
2023-02-19T11:11:27.784Z,99473.91
2023-02-19T11:13:01.662Z,99477.13
2023-02-19T11:14:34.529Z,99474.34
2023-02-19T11:16:06.592Z,99471.72
2023-02-19T11:17:38.880Z,99492.63
2023-02-19T11:19:23.083Z,99492.66
2023-02-19T11:20:56.770Z,99479.31
2023-02-19T11:22:33.639Z,99471.34
2023-02-19T11:24:05.800Z,99468.72
2023-02-19T11:25:44.375Z,99471.56
2023-02-19T11:27:18.865Z,99463.91
2023-02-19T11:28:57.650Z,99484.53
2023-02-19T11:30:36.480Z,99471.00
2023-02-19T11:32:21.037Z,99479.84
2023-02-19T11:33:56.426Z,99479.75
2023-02-19T11:35:28.615Z,99477.28
2023-02-19T11:37:13.944Z,99480.06
2023-02-19T11:38:45.950Z,99485.38
2023-02-19T11:40:18.134Z,99479.38
2023-02-19T11:42:08.709Z,99464.31
2023-02-19T11:44:01.087Z,99479.38
2023-02-19T11:45:33.090Z,99477.72
2023-02-19T11:47:05.165Z,99470.41
2023-02-19T11:48:55.797Z,99474.53
2023-02-19T11:50:33.592Z,99467.03
2023-02-19T11:52:16.555Z,99465.66
2023-02-19T11:53:51.366Z,99466.06
2023-02-19T11:55:32.599Z,99457.44
2023-02-19T11:57:07.368Z,99467.50
2023-02-19T11:58:42.347Z,99486.69
2023-02-19T12:00:14.757Z,99471.66
2023-02-19T12:02:05.285Z,99450.84
2023-02-19T12:03:54.528Z,99459.56
2023-02-19T12:05:26.932Z,99461.00
2023-02-19T12:07:17.753Z,99456.03
2023-02-19T12:08:58.465Z,99466.78
2023-02-19T12:10:38.411Z,99470.56
2023-02-19T12:12:29.216Z,99460.97
2023-02-19T12:14:07.344Z,99484.13
2023-02-19T12:15:45.206Z,99471.13
2023-02-19T12:17:35.974Z,99464.44
2023-02-19T12:19:10.574Z,99476.09
2023-02-19T12:20:42.539Z,99472.03
2023-02-19T12:22:28.465Z,99493.25
2023-02-19T12:24:06.671Z,99485.53
2023-02-19T12:25:45.156Z,99503.50
2023-02-19T12:27:36.152Z,99489.44
2023-02-19T12:29:20.961Z,99491.91
2023-02-19T12:31:05.126Z,99498.19
2023-02-19T12:32:37.189Z,99502.97
2023-02-19T12:34:15.362Z,99507.25
2023-02-19T12:35:52.830Z,99503.22
2023-02-19T12:37:35.666Z,99507.59
2023-02-19T12:39:24.619Z,99507.00
2023-02-19T12:41:13.241Z,99518.84
2023-02-19T12:42:45.232Z,99534.16
2023-02-19T12:44:23.043Z,99529.06
2023-02-19T12:46:07.202Z,99525.44
2023-02-19T12:47:40.932Z,99530.69
2023-02-19T12:49:15.826Z,99520.09
2023-02-19T12:50:49.149Z,99523.50
2023-02-19T12:52:26.450Z,99528.34
2023-02-19T12:54:04.363Z,99529.00
2023-02-19T12:55:39.775Z,99533.47
2023-02-19T12:57:13.672Z,99510.59
2023-02-19T12:58:50.707Z,99516.81
2023-02-19T13:00:25.519Z,99514.13
2023-02-19T13:02:23.799Z,99512.16
2023-02-19T13:04:18.706Z,99509.31
2023-02-19T13:06:10.951Z,99517.88
2023-02-19T13:07:46.394Z,99511.25
2023-02-19T13:09:21.452Z,99508.06
2023-02-19T13:11:19.589Z,99511.16
2023-02-19T13:12:52.801Z,99506.03
2023-02-19T13:14:33.489Z,99517.53
2023-02-19T13:16:18.488Z,99522.97
2023-02-19T13:17:52.255Z,99526.72
2023-02-19T13:19:24.244Z,99519.38
2023-02-19T13:20:56.539Z,99517.44
2023-02-19T13:23:02.617Z,99528.00
2023-02-19T13:24:36.533Z,99520.88
2023-02-19T13:26:08.571Z,99500.25
2023-02-19T13:29:36.598Z,99502.03
2023-02-19T13:31:21.953Z,99509.88
2023-02-19T13:32:54.070Z,99509.47
2023-02-19T13:34:44.633Z,99509.38
2023-02-19T13:36:21.132Z,99496.38
2023-02-19T13:37:54.728Z,99486.34
2023-02-19T13:39:28.502Z,99506.72
2023-02-19T13:41:03.091Z,99510.16
2023-02-19T13:42:36.380Z,99500.09
2023-02-19T13:44:16.206Z,99510.28
2023-02-19T13:45:53.881Z,99524.88
2023-02-19T13:47:44.731Z,99521.09
2023-02-19T13:49:23.063Z,99518.25
2023-02-19T13:51:13.455Z,99519.66
2023-02-19T13:52:45.653Z,99520.47
2023-02-19T13:54:28.733Z,99516.53
2023-02-19T13:56:00.749Z,99526.59
2023-02-19T13:57:32.847Z,99519.44
2023-02-19T13:59:11.005Z,99526.75
2023-02-19T14:00:51.983Z,99542.25
2023-02-19T14:02:28.403Z,99534.81
2023-02-19T14:04:18.455Z,99544.34
2023-02-19T14:05:57.869Z,99542.66
2023-02-19T14:07:32.790Z,99569.47
2023-02-19T14:09:24.939Z,99569.13
2023-02-19T14:10:58.037Z,99589.41
2023-02-19T14:12:34.738Z,99576.16
2023-02-19T14:14:25.409Z,99576.69
2023-02-19T14:15:57.533Z,99588.78
2023-02-19T14:17:35.390Z,99596.06
2023-02-19T14:19:25.444Z,99590.47
2023-02-19T14:21:06.824Z,99596.44
2023-02-19T14:22:47.869Z,99607.38
2023-02-19T14:24:20.197Z,99601.69
2023-02-19T14:25:54.855Z,99603.00
2023-02-19T14:27:27.299Z,99594.03
2023-02-19T14:29:00.648Z,99587.91
2023-02-19T14:30:34.596Z,99594.38
2023-02-19T14:32:06.763Z,99602.91
2023-02-19T14:33:40.349Z,99610.66
2023-02-19T14:35:22.478Z,99611.94
2023-02-19T14:37:01.732Z,99621.72
2023-02-19T14:38:36.970Z,99616.13
2023-02-19T14:40:17.346Z,99617.56
2023-02-19T14:41:59.972Z,99620.28
2023-02-19T14:43:33.797Z,99625.50
2023-02-19T14:45:07.190Z,99626.09
2023-02-19T14:46:42.081Z,99636.72
2023-02-19T14:48:18.876Z,99630.03
2023-02-19T14:50:01.907Z,99619.38
2023-02-19T14:51:39.999Z,99628.22
2023-02-19T14:53:14.527Z,99639.41
2023-02-19T14:55:00.915Z,99632.91
2023-02-19T14:56:34.513Z,99627.50
2023-02-19T14:58:07.805Z,99624.06
2023-02-19T14:59:39.750Z,99619.75
2023-02-19T15:01:28.832Z,99621.91
2023-02-19T15:03:02.685Z,99630.94
2023-02-19T15:04:35.611Z,99626.59
2023-02-19T15:06:11.979Z,99627.09
2023-02-19T15:07:44.211Z,99637.75
2023-02-19T15:09:16.518Z,99642.50
2023-02-19T15:10:49.165Z,99638.88
2023-02-19T15:12:25.379Z,99640.63
2023-02-19T15:14:07.905Z,99630.00
2023-02-19T15:15:43.169Z,99636.16
2023-02-19T15:17:18.842Z,99637.59
2023-02-19T15:18:51.949Z,99638.63
2023-02-19T15:20:25.858Z,99630.72
2023-02-19T15:21:57.899Z,99641.72
2023-02-19T15:23:31.399Z,99641.38
2023-02-19T15:25:04.992Z,99639.34
2023-02-19T15:26:38.425Z,99631.78
2023-02-19T15:28:25.709Z,99650.53
2023-02-19T15:29:57.657Z,99643.69
2023-02-19T15:31:29.839Z,99657.78
2023-02-19T15:33:01.952Z,99664.78
2023-02-19T15:34:33.988Z,99651.09
2023-02-19T15:36:07.636Z,99647.13
2023-02-19T15:37:40.157Z,99665.72
2023-02-19T15:39:16.779Z,99649.28
2023-02-19T15:40:49.504Z,99653.78
2023-02-19T15:42:24.572Z,99660.09
2023-02-19T15:44:00.863Z,99665.34
2023-02-19T15:45:39.440Z,99663.00
2023-02-19T15:47:35.096Z,99685.88
2023-02-19T15:49:11.822Z,99722.50
2023-02-19T15:50:47.689Z,99753.75
2023-02-19T15:52:42.724Z,99764.03
2023-02-19T15:54:27.148Z,99768.94
2023-02-19T15:56:28.387Z,99739.16
2023-02-19T15:58:00.384Z,99729.78
2023-02-19T15:59:38.758Z,99722.34
2023-02-19T16:01:13.861Z,99733.69
2023-02-19T16:02:46.341Z,99765.66
2023-02-19T16:04:19.174Z,99779.59
2023-02-19T16:06:00.600Z,99786.06
2023-02-19T16:07:32.584Z,99792.66
2023-02-19T16:09:05.797Z,99801.94
2023-02-19T16:10:38.552Z,99795.69
2023-02-19T16:12:21.748Z,99797.38
2023-02-19T17:44:56.980Z,99889.25
2023-02-19T17:46:29.221Z,99893.91
2023-02-19T17:48:01.435Z,99899.00
2023-02-19T17:49:33.574Z,99910.28
2023-02-19T17:51:05.907Z,99918.16
2023-02-19T17:52:37.940Z,99920.84
2023-02-19T17:54:10.091Z,99922.81
2023-02-19T17:55:42.148Z,99925.63
2023-02-19T17:57:14.286Z,99933.69
2023-02-19T17:58:46.917Z,99935.91
2023-02-19T18:00:22.573Z,99941.06
2023-02-19T18:01:55.224Z,99940.13
2023-02-19T18:03:27.370Z,99942.81
2023-02-19T18:04:59.508Z,99943.31
2023-02-19T18:06:31.788Z,99940.13
2023-02-19T18:08:03.924Z,99941.13
2023-02-19T18:09:36.054Z,99958.75
2023-02-19T18:11:08.208Z,99950.47
2023-02-19T18:12:40.682Z,99951.19
2023-02-19T18:14:12.984Z,99963.34
2023-02-19T18:15:45.139Z,99958.91
2023-02-19T18:17:17.229Z,99980.63
2023-02-19T18:18:49.311Z,99975.34
2023-02-19T18:20:27.015Z,99978.78
2023-02-19T18:21:59.163Z,99993.34
2023-02-19T18:23:31.270Z,99992.94
2023-02-19T18:25:03.389Z,99999.34
2023-02-19T18:26:35.478Z,99999.84
2023-02-19T18:28:07.756Z,99993.22
2023-02-19T18:29:39.866Z,100012.16
2023-02-19T18:31:12.360Z,100003.59
2023-02-19T18:32:48.628Z,100003.94
2023-02-19T18:34:20.780Z,100018.16
2023-02-19T18:35:52.933Z,100011.00
2023-02-19T18:37:26.955Z,100014.94
2023-02-19T18:38:59.040Z,100011.09
2023-02-19T18:40:31.215Z,100027.75
2023-02-19T18:42:05.601Z,100013.84
2023-02-19T18:43:37.784Z,100014.78
2023-02-19T18:45:09.969Z,100025.16
2023-02-19T18:46:42.274Z,100015.44
2023-02-19T18:48:14.493Z,100026.00
2023-02-19T18:49:54.833Z,100032.41
2023-02-19T18:51:26.954Z,100042.03
2023-02-19T18:52:59.168Z,100031.31
2023-02-19T18:54:31.863Z,100037.72
2023-02-19T18:56:05.459Z,100029.91
2023-02-19T18:57:37.802Z,100030.75
2023-02-19T18:59:10.573Z,100040.78
2023-02-19T19:00:42.615Z,100044.53
2023-02-19T19:02:15.739Z,100061.56
2023-02-19T19:03:48.025Z,100050.19
2023-02-19T19:05:23.891Z,100060.72
2023-02-19T19:06:55.993Z,100054.41
2023-02-19T19:08:30.391Z,100052.97
2023-02-19T19:10:02.868Z,100054.50
2023-02-19T19:11:35.742Z,100044.75
2023-02-19T19:13:07.792Z,100047.00
2023-02-19T19:14:39.960Z,100054.84
2023-02-19T19:16:12.131Z,100050.25
2023-02-19T19:17:44.303Z,100056.91
2023-02-19T19:19:16.510Z,100064.78
2023-02-19T19:20:48.772Z,100080.75
2023-02-19T19:22:22.864Z,100081.25
2023-02-19T19:23:55.023Z,100089.88
2023-02-19T19:25:27.068Z,100081.34
2023-02-19T19:27:02.205Z,100084.28
2023-02-19T19:28:34.574Z,100079.69
2023-02-19T19:30:07.615Z,100086.56
2023-02-19T19:31:39.664Z,100090.72
2023-02-19T19:33:14.044Z,100085.38
2023-02-19T19:34:46.294Z,100095.63
2023-02-19T19:36:21.631Z,100092.97
2023-02-19T19:37:53.733Z,100100.81
2023-02-19T19:39:25.947Z,100104.75
2023-02-19T19:40:58.247Z,100107.66
2023-02-19T19:42:30.367Z,100112.56
2023-02-19T19:44:04.824Z,100118.19
2023-02-19T19:45:37.100Z,100123.56
2023-02-19T19:47:09.340Z,100136.00
2023-02-19T19:48:41.528Z,100136.78
2023-02-19T19:50:14.585Z,100128.72
2023-02-19T19:51:47.099Z,100131.22
2023-02-19T19:53:19.341Z,100144.84
2023-02-19T19:54:54.160Z,100139.47
2023-02-19T19:56:26.289Z,100144.16
2023-02-19T19:58:00.420Z,100149.53
2023-02-19T19:59:32.707Z,100160.78
2023-02-19T20:01:06.109Z,100154.16
2023-02-19T20:02:38.213Z,100174.94
2023-02-19T20:04:10.432Z,100180.78
2023-02-19T20:05:42.698Z,100168.84
2023-02-19T20:07:15.368Z,100183.47
2023-02-19T20:08:48.828Z,100188.59
2023-02-19T20:10:23.546Z,100186.66
2023-02-19T20:11:56.539Z,100183.72
2023-02-19T20:13:32.730Z,100192.25